sensor_id;sensor_type;location;lat;lon;timestamp;temperature;humidity
71173;DHT22;58875;51.996;4.504;2024-01-15T00:01:29;4.33;78.41
71173;DHT22;58875;51.996;4.504;2024-01-15T00:03:55;4.29;78.45
71173;DHT22;58875;51.996;4.504;2024-01-15T00:06:21;4.16;78.69
71173;DHT22;58875;51.996;4.504;2024-01-15T00:08:46;4.13;78.78
71173;DHT22;58875;51.996;4.504;2024-01-15T00:11:12;4.10;78.75
71173;DHT22;58875;51.996;4.504;2024-01-15T00:13:37;4.06;78.86
71173;DHT22;58875;51.996;4.504;2024-01-15T00:16:04;3.97;79.03
71173;DHT22;58875;51.996;4.504;2024-01-15T00:18:30;3.92;78.64
71173;DHT22;58875;51.996;4.504;2024-01-15T00:20:55;3.92;78.82
71173;DHT22;58875;51.996;4.504;2024-01-15T00:23:22;3.90;78.85
71173;DHT22;58875;51.996;4.504;2024-01-15T00:25:48;3.87;78.47
71173;DHT22;58875;51.996;4.504;2024-01-15T00:28:13;3.90;78.42
71173;DHT22;58875;51.996;4.504;2024-01-15T00:30:39;3.89;78.05
71173;DHT22;58875;51.996;4.504;2024-01-15T00:33:04;3.86;77.92
71173;DHT22;58875;51.996;4.504;2024-01-15T00:35:30;3.87;77.74
71173;DHT22;58875;51.996;4.504;2024-01-15T00:37:55;3.82;77.60
71173;DHT22;58875;51.996;4.504;2024-01-15T00:40:21;3.85;77.05
71173;DHT22;58875;51.996;4.504;2024-01-15T00:42:46;3.95;76.40
71173;DHT22;58875;51.996;4.504;2024-01-15T00:45:13;3.97;76.60
71173;DHT22;58875;51.996;4.504;2024-01-15T00:47:39;3.96;76.48
71173;DHT22;58875;51.996;4.504;2024-01-15T00:50:05;3.95;76.54
71173;DHT22;58875;51.996;4.504;2024-01-15T00:52:30;4.00;76.42
71173;DHT22;58875;51.996;4.504;2024-01-15T00:54:56;4.02;76.58
71173;DHT22;58875;51.996;4.504;2024-01-15T00:57:21;3.99;76.70
71173;DHT22;58875;51.996;4.504;2024-01-15T00:59:47;3.96;76.64
71173;DHT22;58875;51.996;4.504;2024-01-15T01:02:13;3.97;76.06
71173;DHT22;58875;51.996;4.504;2024-01-15T01:04:40;4.06;75.61
71173;DHT22;58875;51.996;4.504;2024-01-15T01:07:05;4.09;75.06
71173;DHT22;58875;51.996;4.504;2024-01-15T01:09:31;4.20;74.61
71173;DHT22;58875;51.996;4.504;2024-01-15T01:11:57;4.21;74.25
71173;DHT22;58875;51.996;4.504;2024-01-15T01:14:22;4.26;74.18
71173;DHT22;58875;51.996;4.504;2024-01-15T01:16:48;4.26;74.19
71173;DHT22;58875;51.996;4.504;2024-01-15T01:19:13;4.23;74.57
71173;DHT22;58875;51.996;4.504;2024-01-15T01:21:39;4.17;74.82
71173;DHT22;58875;51.996;4.504;2024-01-15T01:24:04;4.17;74.37
71173;DHT22;58875;51.996;4.504;2024-01-15T01:26:30;4.21;74.46
71173;DHT22;58875;51.996;4.504;2024-01-15T01:28:56;4.23;74.66
71173;DHT22;58875;51.996;4.504;2024-01-15T01:31:21;4.32;74.69
71173;DHT22;58875;51.996;4.504;2024-01-15T01:33:47;4.32;74.78
71173;DHT22;58875;51.996;4.504;2024-01-15T01:36:12;4.30;75.36
71173;DHT22;58875;51.996;4.504;2024-01-15T01:38:39;4.27;75.92
71173;DHT22;58875;51.996;4.504;2024-01-15T01:41:05;4.26;76.37
71173;DHT22;58875;51.996;4.504;2024-01-15T01:43:30;4.20;76.68
71173;DHT22;58875;51.996;4.504;2024-01-15T01:45:57;4.13;77.10
71173;DHT22;58875;51.996;4.504;2024-01-15T01:48:25;4.17;77.10
71173;DHT22;58875;51.996;4.504;2024-01-15T01:50:57;4.10;77.07
71173;DHT22;58875;51.996;4.504;2024-01-15T01:53:26;4.03;77.19
71173;DHT22;58875;51.996;4.504;2024-01-15T01:55:53;4.06;77.21
71173;DHT22;58875;51.996;4.504;2024-01-15T01:58:20;3.92;77.45
71173;DHT22;58875;51.996;4.504;2024-01-15T02:00:46;3.93;77.61
71173;DHT22;58875;51.996;4.504;2024-01-15T02:03:12;3.92;77.81
71173;DHT22;58875;51.996;4.504;2024-01-15T02:05:39;3.90;78.13
71173;DHT22;58875;51.996;4.504;2024-01-15T02:08:05;3.87;78.09
71173;DHT22;58875;51.996;4.504;2024-01-15T02:10:31;3.86;78.21
71173;DHT22;58875;51.996;4.504;2024-01-15T02:12:58;3.90;78.21
71173;DHT22;58875;51.996;4.504;2024-01-15T02:15:23;3.90;78.06
71173;DHT22;58875;51.996;4.504;2024-01-15T02:18:09;3.92;78.39
71173;DHT22;58875;51.996;4.504;2024-01-15T02:20:35;3.90;78.28
71173;DHT22;58875;51.996;4.504;2024-01-15T02:23:09;3.86;78.65
71173;DHT22;58875;51.996;4.504;2024-01-15T02:25:43;3.83;78.60
71173;DHT22;58875;51.996;4.504;2024-01-15T02:28:17;3.78;78.28
71173;DHT22;58875;51.996;4.504;2024-01-15T02:30:43;3.72;78.04
71173;DHT22;58875;51.996;4.504;2024-01-15T02:33:10;3.69;77.86
71173;DHT22;58875;51.996;4.504;2024-01-15T02:35:37;3.64;77.72
71173;DHT22;58875;51.996;4.504;2024-01-15T02:38:03;3.56;77.34
71173;DHT22;58875;51.996;4.504;2024-01-15T02:40:29;3.55;77.48
71173;DHT22;58875;51.996;4.504;2024-01-15T02:42:54;3.52;77.54
71173;DHT22;58875;51.996;4.504;2024-01-15T02:45:21;3.52;77.58
71173;DHT22;58875;51.996;4.504;2024-01-15T02:47:47;3.51;77.90
71173;DHT22;58875;51.996;4.504;2024-01-15T02:50:13;3.51;77.89
71173;DHT22;58875;51.996;4.504;2024-01-15T02:52:38;3.54;77.54
71173;DHT22;58875;51.996;4.504;2024-01-15T02:55:04;3.52;77.44
71173;DHT22;58875;51.996;4.504;2024-01-15T02:57:30;3.58;77.52
71173;DHT22;58875;51.996;4.504;2024-01-15T02:59:56;3.65;77.26
71173;DHT22;58875;51.996;4.504;2024-01-15T03:02:21;3.68;77.21
71173;DHT22;58875;51.996;4.504;2024-01-15T03:04:47;3.76;77.15
71173;DHT22;58875;51.996;4.504;2024-01-15T03:07:13;3.82;77.14
71173;DHT22;58875;51.996;4.504;2024-01-15T03:09:38;3.92;77.57
71173;DHT22;58875;51.996;4.504;2024-01-15T03:12:04;3.89;77.93
71173;DHT22;58875;51.996;4.504;2024-01-15T03:14:29;3.92;78.07
71173;DHT22;58875;51.996;4.504;2024-01-15T03:16:57;3.86;78.36
71173;DHT22;58875;51.996;4.504;2024-01-15T03:19:23;3.81;78.80
71173;DHT22;58875;51.996;4.504;2024-01-15T03:21:48;3.76;79.16
71173;DHT22;58875;51.996;4.504;2024-01-15T03:24:14;3.64;79.67
71173;DHT22;58875;51.996;4.504;2024-01-15T03:26:39;3.58;80.30
71173;DHT22;58875;51.996;4.504;2024-01-15T03:29:05;3.54;80.41
71173;DHT22;58875;51.996;4.504;2024-01-15T03:31:30;3.55;80.60
71173;DHT22;58875;51.996;4.504;2024-01-15T03:33:56;3.58;80.78
71173;DHT22;58875;51.996;4.504;2024-01-15T03:36:22;3.55;80.85
71173;DHT22;58875;51.996;4.504;2024-01-15T03:38:47;3.59;81.35
71173;DHT22;58875;51.996;4.504;2024-01-15T03:41:13;3.45;81.59
71173;DHT22;58875;51.996;4.504;2024-01-15T03:43:39;3.37;82.43
71173;DHT22;58875;51.996;4.504;2024-01-15T03:46:05;3.37;82.95
71173;DHT22;58875;51.996;4.504;2024-01-15T03:48:31;3.39;83.07
71173;DHT22;58875;51.996;4.504;2024-01-15T03:50:56;3.32;83.36
71173;DHT22;58875;51.996;4.504;2024-01-15T03:53:22;3.27;83.45
71173;DHT22;58875;51.996;4.504;2024-01-15T03:55:47;3.18;84.04
71173;DHT22;58875;51.996;4.504;2024-01-15T03:58:13;3.15;84.29
71173;DHT22;58875;51.996;4.504;2024-01-15T04:00:41;3.11;84.75
71173;DHT22;58875;51.996;4.504;2024-01-15T04:03:06;3.18;84.79
71173;DHT22;58875;51.996;4.504;2024-01-15T04:05:32;3.18;84.62
71173;DHT22;58875;51.996;4.504;2024-01-15T04:07:57;3.18;84.80
71173;DHT22;58875;51.996;4.504;2024-01-15T04:10:23;3.25;84.80
71173;DHT22;58875;51.996;4.504;2024-01-15T04:12:49;3.30;84.76
71173;DHT22;58875;51.996;4.504;2024-01-15T04:15:15;3.37;84.46
71173;DHT22;58875;51.996;4.504;2024-01-15T04:17:40;3.42;84.25
71173;DHT22;58875;51.996;4.504;2024-01-15T04:20:06;3.54;84.19
71173;DHT22;58875;51.996;4.504;2024-01-15T04:22:34;3.59;83.98
71173;DHT22;58875;51.996;4.504;2024-01-15T04:24:59;3.51;83.13
71173;DHT22;58875;51.996;4.504;2024-01-15T04:27:25;3.31;82.84
71173;DHT22;58875;51.996;4.504;2024-01-15T04:29:50;3.17;82.90
71173;DHT22;58875;51.996;4.504;2024-01-15T04:32:16;2.99;83.57
71173;DHT22;58875;51.996;4.504;2024-01-15T04:34:41;3.00;83.84
71173;DHT22;58875;51.996;4.504;2024-01-15T04:37:07;2.99;83.86
71173;DHT22;58875;51.996;4.504;2024-01-15T04:39:32;2.97;83.95
71173;DHT22;58875;51.996;4.504;2024-01-15T04:41:57;3.01;84.18
71173;DHT22;58875;51.996;4.504;2024-01-15T04:44:23;3.01;84.41
71173;DHT22;58875;51.996;4.504;2024-01-15T04:46:49;2.87;84.16
71173;DHT22;58875;51.996;4.504;2024-01-15T04:49:14;2.56;84.19
71173;DHT22;58875;51.996;4.504;2024-01-15T04:51:40;2.34;84.73
71173;DHT22;58875;51.996;4.504;2024-01-15T04:54:05;2.25;85.00
71173;DHT22;58875;51.996;4.504;2024-01-15T04:56:31;2.11;85.23
71173;DHT22;58875;51.996;4.504;2024-01-15T04:58:56;1.98;85.56
71173;DHT22;58875;51.996;4.504;2024-01-15T05:01:22;1.95;85.97
71173;DHT22;58875;51.996;4.504;2024-01-15T05:03:47;1.90;86.37
71173;DHT22;58875;51.996;4.504;2024-01-15T05:06:14;1.85;86.48
71173;DHT22;58875;51.996;4.504;2024-01-15T05:08:40;1.90;86.91
71173;DHT22;58875;51.996;4.504;2024-01-15T05:11:05;1.90;86.67
71173;DHT22;58875;51.996;4.504;2024-01-15T05:13:31;1.88;86.80
71173;DHT22;58875;51.996;4.504;2024-01-15T05:15:56;1.87;86.81
71173;DHT22;58875;51.996;4.504;2024-01-15T05:18:22;1.81;87.04
71173;DHT22;58875;51.996;4.504;2024-01-15T05:20:47;1.90;87.14
71173;DHT22;58875;51.996;4.504;2024-01-15T05:23:13;1.84;87.33
71173;DHT22;58875;51.996;4.504;2024-01-15T05:25:38;1.85;87.46
71173;DHT22;58875;51.996;4.504;2024-01-15T05:28:06;1.80;87.59
71173;DHT22;58875;51.996;4.504;2024-01-15T05:30:31;1.84;87.66
71173;DHT22;58875;51.996;4.504;2024-01-15T05:32:57;1.95;87.72
71173;DHT22;58875;51.996;4.504;2024-01-15T05:35:23;1.93;87.61
71173;DHT22;58875;51.996;4.504;2024-01-15T05:37:48;1.98;87.66
71173;DHT22;58875;51.996;4.504;2024-01-15T05:40:14;1.98;87.80
71173;DHT22;58875;51.996;4.504;2024-01-15T05:42:41;2.10;88.02
71173;DHT22;58875;51.996;4.504;2024-01-15T05:45:07;2.17;88.23
71173;DHT22;58875;51.996;4.504;2024-01-15T05:47:33;2.26;87.76
71173;DHT22;58875;51.996;4.504;2024-01-15T05:50:00;2.29;87.76
71173;DHT22;58875;51.996;4.504;2024-01-15T05:52:25;2.35;87.49
71173;DHT22;58875;51.996;4.504;2024-01-15T05:54:51;2.45;87.37
71173;DHT22;58875;51.996;4.504;2024-01-15T05:57:16;2.50;87.11
71173;DHT22;58875;51.996;4.504;2024-01-15T05:59:44;2.53;86.97
71173;DHT22;58875;51.996;4.504;2024-01-15T06:02:09;2.59;86.86
71173;DHT22;58875;51.996;4.504;2024-01-15T06:04:35;2.65;86.67
71173;DHT22;58875;51.996;4.504;2024-01-15T06:07:00;2.71;86.41
71173;DHT22;58875;51.996;4.504;2024-01-15T06:09:26;2.67;86.13
71173;DHT22;58875;51.996;4.504;2024-01-15T06:11:51;2.67;85.81
71173;DHT22;58875;51.996;4.504;2024-01-15T06:14:17;2.76;85.59
71173;DHT22;58875;51.996;4.504;2024-01-15T06:16:42;2.80;85.14
71173;DHT22;58875;51.996;4.504;2024-01-15T06:19:08;2.67;85.26
71173;DHT22;58875;51.996;4.504;2024-01-15T06:21:33;2.66;85.74
71173;DHT22;58875;51.996;4.504;2024-01-15T06:23:59;2.49;85.58
71173;DHT22;58875;51.996;4.504;2024-01-15T06:26:24;2.20;85.82
71173;DHT22;58875;51.996;4.504;2024-01-15T06:28:50;1.98;86.39
71173;DHT22;58875;51.996;4.504;2024-01-15T06:31:15;1.88;86.72
71173;DHT22;58875;51.996;4.504;2024-01-15T06:33:41;1.83;87.02
71173;DHT22;58875;51.996;4.504;2024-01-15T06:36:07;1.93;87.19
71173;DHT22;58875;51.996;4.504;2024-01-15T06:38:33;1.94;86.91
71173;DHT22;58875;51.996;4.504;2024-01-15T06:40:59;2.01;86.99
71173;DHT22;58875;51.996;4.504;2024-01-15T06:43:25;2.05;86.83
71173;DHT22;58875;51.996;4.504;2024-01-15T06:45:50;2.08;86.57
71173;DHT22;58875;51.996;4.504;2024-01-15T06:48:16;2.05;86.49
71173;DHT22;58875;51.996;4.504;2024-01-15T06:50:44;2.11;86.52
71173;DHT22;58875;51.996;4.504;2024-01-15T06:53:11;2.08;86.61
71173;DHT22;58875;51.996;4.504;2024-01-15T06:55:38;2.08;86.73
71173;DHT22;58875;51.996;4.504;2024-01-15T06:58:03;2.10;86.77
71173;DHT22;58875;51.996;4.504;2024-01-15T07:00:29;2.12;86.86
71173;DHT22;58875;51.996;4.504;2024-01-15T07:02:54;2.21;87.04
71173;DHT22;58875;51.996;4.504;2024-01-15T07:05:21;2.26;86.93
71173;DHT22;58875;51.996;4.504;2024-01-15T07:07:46;2.24;86.94
71173;DHT22;58875;51.996;4.504;2024-01-15T07:10:13;2.35;87.21
71173;DHT22;58875;51.996;4.504;2024-01-15T07:12:38;2.41;86.98
71173;DHT22;58875;51.996;4.504;2024-01-15T07:15:04;2.48;86.94
71173;DHT22;58875;51.996;4.504;2024-01-15T07:17:32;2.57;87.04
71173;DHT22;58875;51.996;4.504;2024-01-15T07:19:58;2.62;86.78
71173;DHT22;58875;51.996;4.504;2024-01-15T07:22:23;2.69;86.57
71173;DHT22;58875;51.996;4.504;2024-01-15T07:24:49;2.82;86.63
71173;DHT22;58875;51.996;4.504;2024-01-15T07:27:14;2.89;86.44
71173;DHT22;58875;51.996;4.504;2024-01-15T07:29:40;2.96;86.26
71173;DHT22;58875;51.996;4.504;2024-01-15T07:32:05;3.01;85.88
71173;DHT22;58875;51.996;4.504;2024-01-15T07:34:33;2.96;85.61
71173;DHT22;58875;51.996;4.504;2024-01-15T07:36:58;2.94;85.45
71173;DHT22;58875;51.996;4.504;2024-01-15T07:39:24;2.99;85.33
71173;DHT22;58875;51.996;4.504;2024-01-15T07:41:51;2.90;85.14
71173;DHT22;58875;51.996;4.504;2024-01-15T07:44:17;2.79;85.35
71173;DHT22;58875;51.996;4.504;2024-01-15T07:46:47;2.82;85.41
71173;DHT22;58875;51.996;4.504;2024-01-15T07:49:13;2.89;85.54
71173;DHT22;58875;51.996;4.504;2024-01-15T07:51:39;2.90;84.88
71173;DHT22;58875;51.996;4.504;2024-01-15T07:54:06;2.90;84.27
71173;DHT22;58875;51.996;4.504;2024-01-15T07:56:32;2.93;83.70
71173;DHT22;58875;51.996;4.504;2024-01-15T07:58:57;2.90;83.22
71173;DHT22;58875;51.996;4.504;2024-01-15T08:01:23;2.94;82.90
71173;DHT22;58875;51.996;4.504;2024-01-15T08:03:48;3.04;83.20
71173;DHT22;58875;51.996;4.504;2024-01-15T08:06:14;3.13;83.41
71173;DHT22;58875;51.996;4.504;2024-01-15T08:08:40;3.15;83.51
71173;DHT22;58875;51.996;4.504;2024-01-15T08:11:05;3.11;82.86
71173;DHT22;58875;51.996;4.504;2024-01-15T08:13:31;3.10;82.95
71173;DHT22;58875;51.996;4.504;2024-01-15T08:15:57;3.11;82.77
71173;DHT22;58875;51.996;4.504;2024-01-15T08:18:22;3.10;82.59
71173;DHT22;58875;51.996;4.504;2024-01-15T08:20:48;3.06;81.82
71173;DHT22;58875;51.996;4.504;2024-01-15T08:23:14;3.11;81.14
71173;DHT22;58875;51.996;4.504;2024-01-15T08:25:40;3.14;80.12
71173;DHT22;58875;51.996;4.504;2024-01-15T08:28:05;3.15;80.14
71173;DHT22;58875;51.996;4.504;2024-01-15T08:30:31;3.21;79.65
71173;DHT22;58875;51.996;4.504;2024-01-15T08:32:57;3.21;79.34
71173;DHT22;58875;51.996;4.504;2024-01-15T08:35:22;3.23;79.44
71173;DHT22;58875;51.996;4.504;2024-01-15T08:37:54;3.25;79.30
71173;DHT22;58875;51.996;4.504;2024-01-15T08:40:20;3.21;79.11
71173;DHT22;58875;51.996;4.504;2024-01-15T08:42:45;3.28;79.64
71173;DHT22;58875;51.996;4.504;2024-01-15T08:45:11;3.24;79.94
71173;DHT22;58875;51.996;4.504;2024-01-15T08:47:37;3.34;80.00
71173;DHT22;58875;51.996;4.504;2024-01-15T08:50:04;3.28;79.48
71173;DHT22;58875;51.996;4.504;2024-01-15T08:52:30;3.38;78.87
71173;DHT22;58875;51.996;4.504;2024-01-15T08:54:57;3.39;78.36
71173;DHT22;58875;51.996;4.504;2024-01-15T08:57:22;3.61;77.67
71173;DHT22;58875;51.996;4.504;2024-01-15T08:59:48;3.59;77.07
71173;DHT22;58875;51.996;4.504;2024-01-15T09:02:14;3.61;77.03
71173;DHT22;58875;51.996;4.504;2024-01-15T09:04:40;3.75;77.30
71173;DHT22;58875;51.996;4.504;2024-01-15T09:07:06;3.89;77.57
71173;DHT22;58875;51.996;4.504;2024-01-15T09:09:31;3.95;77.49
71173;DHT22;58875;51.996;4.504;2024-01-15T09:11:57;3.86;78.16
71173;DHT22;58875;51.996;4.504;2024-01-15T09:14:22;3.79;79.06
71173;DHT22;58875;51.996;4.504;2024-01-15T09:16:51;3.66;79.45
71173;DHT22;58875;51.996;4.504;2024-01-15T09:19:16;3.54;79.79
71173;DHT22;58875;51.996;4.504;2024-01-15T09:21:42;3.54;80.52
71173;DHT22;58875;51.996;4.504;2024-01-15T09:24:07;3.54;80.62
71173;DHT22;58875;51.996;4.504;2024-01-15T09:26:33;3.52;80.89
71173;DHT22;58875;51.996;4.504;2024-01-15T09:28:58;3.51;81.01
71173;DHT22;58875;51.996;4.504;2024-01-15T09:31:24;3.54;81.04
71173;DHT22;58875;51.996;4.504;2024-01-15T09:33:49;3.59;80.93
71173;DHT22;58875;51.996;4.504;2024-01-15T09:36:18;3.66;80.90
71173;DHT22;58875;51.996;4.504;2024-01-15T09:38:43;3.69;80.62
71173;DHT22;58875;51.996;4.504;2024-01-15T09:41:09;3.71;80.48
71173;DHT22;58875;51.996;4.504;2024-01-15T09:43:37;3.69;80.23
71173;DHT22;58875;51.996;4.504;2024-01-15T09:46:03;3.68;79.75
71173;DHT22;58875;51.996;4.504;2024-01-15T09:48:29;3.76;79.85
71173;DHT22;58875;51.996;4.504;2024-01-15T09:50:57;3.87;79.86
71173;DHT22;58875;51.996;4.504;2024-01-15T09:53:25;3.74;79.82
71173;DHT22;58875;51.996;4.504;2024-01-15T09:55:52;3.79;79.79
71173;DHT22;58875;51.996;4.504;2024-01-15T09:58:18;3.74;79.85
71173;DHT22;58875;51.996;4.504;2024-01-15T10:00:44;3.66;79.78
71173;DHT22;58875;51.996;4.504;2024-01-15T10:03:10;3.66;80.23
71173;DHT22;58875;51.996;4.504;2024-01-15T10:05:37;3.66;80.35
71173;DHT22;58875;51.996;4.504;2024-01-15T10:08:04;3.54;79.76
71173;DHT22;58875;51.996;4.504;2024-01-15T10:10:30;3.20;80.37
71173;DHT22;58875;51.996;4.504;2024-01-15T10:12:58;3.01;81.01
71173;DHT22;58875;51.996;4.504;2024-01-15T10:15:27;2.99;81.73
71173;DHT22;58875;51.996;4.504;2024-01-15T10:17:54;2.99;81.70
71173;DHT22;58875;51.996;4.504;2024-01-15T10:20:20;3.01;81.65
71173;DHT22;58875;51.996;4.504;2024-01-15T10:22:47;3.07;81.78
71173;DHT22;58875;51.996;4.504;2024-01-15T10:25:13;3.11;81.36
71173;DHT22;58875;51.996;4.504;2024-01-15T10:27:42;3.24;81.48
71173;DHT22;58875;51.996;4.504;2024-01-15T10:30:09;3.30;81.16
71173;DHT22;58875;51.996;4.504;2024-01-15T10:32:35;3.34;80.75
71173;DHT22;58875;51.996;4.504;2024-01-15T10:35:00;3.42;80.59
71173;DHT22;58875;51.996;4.504;2024-01-15T10:37:26;3.52;80.82
71173;DHT22;58875;51.996;4.504;2024-01-15T10:39:52;3.58;80.27
71173;DHT22;58875;51.996;4.504;2024-01-15T10:42:18;3.78;80.53
71173;DHT22;58875;51.996;4.504;2024-01-15T10:44:44;3.95;80.23
71173;DHT22;58875;51.996;4.504;2024-01-15T10:47:17;4.14;79.59
71173;DHT22;58875;51.996;4.504;2024-01-15T10:49:44;4.16;79.48
71173;DHT22;58875;51.996;4.504;2024-01-15T10:52:10;4.26;79.27
71173;DHT22;58875;51.996;4.504;2024-01-15T10:54:37;4.26;78.63
71173;DHT22;58875;51.996;4.504;2024-01-15T10:57:03;4.06;76.79
71173;DHT22;58875;51.996;4.504;2024-01-15T10:59:29;4.06;76.32
71173;DHT22;58875;51.996;4.504;2024-01-15T11:01:55;4.16;76.42
71173;DHT22;58875;51.996;4.504;2024-01-15T11:04:21;4.38;77.33
71173;DHT22;58875;51.996;4.504;2024-01-15T11:06:51;4.61;76.73
71173;DHT22;58875;51.996;4.504;2024-01-15T11:09:18;4.77;76.72
71173;DHT22;58875;51.996;4.504;2024-01-15T11:11:46;4.99;76.69
71173;DHT22;58875;51.996;4.504;2024-01-15T11:14:40;5.07;75.83
71173;DHT22;58875;51.996;4.504;2024-01-15T11:17:09;4.85;74.18
71173;DHT22;58875;51.996;4.504;2024-01-15T11:25:13;4.69;72.29
71173;DHT22;58875;51.996;4.504;2024-01-15T11:27:48;4.74;72.58
71173;DHT22;58875;51.996;4.504;2024-01-15T11:30:17;4.96;73.05
71173;DHT22;58875;51.996;4.504;2024-01-15T11:32:43;4.88;71.76
71173;DHT22;58875;51.996;4.504;2024-01-15T11:35:10;4.77;71.86
71173;DHT22;58875;51.996;4.504;2024-01-15T11:40:37;4.38;74.33
71173;DHT22;58875;51.996;4.504;2024-01-15T11:43:04;4.20;74.98
71173;DHT22;58875;51.996;4.504;2024-01-15T11:45:31;4.00;75.95
71173;DHT22;58875;51.996;4.504;2024-01-15T11:50:41;3.87;76.41
71173;DHT22;58875;51.996;4.504;2024-01-15T11:53:27;3.82;76.49
71173;DHT22;58875;51.996;4.504;2024-01-15T11:55:58;3.83;77.21
71173;DHT22;58875;51.996;4.504;2024-01-15T11:58:25;3.75;78.56
71173;DHT22;58875;51.996;4.504;2024-01-15T12:00:51;3.74;79.35
71173;DHT22;58875;51.996;4.504;2024-01-15T12:03:21;3.76;79.80
71173;DHT22;58875;51.996;4.504;2024-01-15T12:05:46;3.61;79.93
71173;DHT22;58875;51.996;4.504;2024-01-15T12:08:12;3.64;80.13
71173;DHT22;58875;51.996;4.504;2024-01-15T12:10:39;3.62;80.04
71173;DHT22;58875;51.996;4.504;2024-01-15T12:13:11;3.69;80.14
71173;DHT22;58875;51.996;4.504;2024-01-15T12:15:44;3.97;80.21
71173;DHT22;58875;51.996;4.504;2024-01-15T12:18:12;4.14;80.09
71173;DHT22;58875;51.996;4.504;2024-01-15T12:20:40;4.36;80.33
71173;DHT22;58875;51.996;4.504;2024-01-15T12:23:06;4.50;80.16
71173;DHT22;58875;51.996;4.504;2024-01-15T12:25:33;4.58;79.93
71173;DHT22;58875;51.996;4.504;2024-01-15T12:28:00;4.71;79.73
71173;DHT22;58875;51.996;4.504;2024-01-15T12:30:30;4.98;79.83
71173;DHT22;58875;51.996;4.504;2024-01-15T12:33:04;5.13;78.07
71173;DHT22;58875;51.996;4.504;2024-01-15T12:35:30;5.13;77.40
71173;DHT22;58875;51.996;4.504;2024-01-15T12:37:56;5.08;75.63
71173;DHT22;58875;51.996;4.504;2024-01-15T12:40:23;5.16;74.73
71173;DHT22;58875;51.996;4.504;2024-01-15T12:42:49;5.25;73.27
71173;DHT22;58875;51.996;4.504;2024-01-15T12:45:15;5.50;73.08
71173;DHT22;58875;51.996;4.504;2024-01-15T12:47:41;5.63;71.96
71173;DHT22;58875;51.996;4.504;2024-01-15T12:50:09;5.54;71.70
71173;DHT22;58875;51.996;4.504;2024-01-15T12:52:34;5.33;71.95
71173;DHT22;58875;51.996;4.504;2024-01-15T12:55:00;5.15;71.12
71173;DHT22;58875;51.996;4.504;2024-01-15T12:57:26;5.15;71.13
71173;DHT22;58875;51.996;4.504;2024-01-15T12:59:54;5.04;68.30
71173;DHT22;58875;51.996;4.504;2024-01-15T13:02:20;5.00;68.53
71173;DHT22;58875;51.996;4.504;2024-01-15T13:04:45;4.95;67.68
71173;DHT22;58875;51.996;4.504;2024-01-15T13:07:11;5.00;68.21
71173;DHT22;58875;51.996;4.504;2024-01-15T13:09:37;5.26;68.40
71173;DHT22;58875;51.996;4.504;2024-01-15T13:12:03;5.40;67.57
71173;DHT22;58875;51.996;4.504;2024-01-15T13:14:28;5.35;68.50
71173;DHT22;58875;51.996;4.504;2024-01-15T13:16:54;5.23;69.66
71173;DHT22;58875;51.996;4.504;2024-01-15T13:19:22;5.05;70.61
71173;DHT22;58875;51.996;4.504;2024-01-15T13:21:48;4.72;72.26
71173;DHT22;58875;51.996;4.504;2024-01-15T13:24:15;4.37;74.00
71173;DHT22;58875;51.996;4.504;2024-01-15T13:26:40;4.17;74.35
71173;DHT22;58875;51.996;4.504;2024-01-15T13:29:06;3.95;74.13
71173;DHT22;58875;51.996;4.504;2024-01-15T13:31:32;3.93;74.62
71173;DHT22;58875;51.996;4.504;2024-01-15T13:33:58;3.97;74.55
71173;DHT22;58875;51.996;4.504;2024-01-15T13:36:25;3.85;74.66
71173;DHT22;58875;51.996;4.504;2024-01-15T13:38:51;3.79;74.66
71173;DHT22;58875;51.996;4.504;2024-01-15T13:41:20;3.82;74.99
71173;DHT22;58875;51.996;4.504;2024-01-15T13:43:55;3.75;75.34
71173;DHT22;58875;51.996;4.504;2024-01-15T13:46:24;3.56;77.23
71173;DHT22;58875;51.996;4.504;2024-01-15T13:48:50;3.51;78.28
71173;DHT22;58875;51.996;4.504;2024-01-15T13:51:15;3.51;79.14
71173;DHT22;58875;51.996;4.504;2024-01-15T13:53:41;3.58;79.03
71173;DHT22;58875;51.996;4.504;2024-01-15T13:56:07;3.86;79.39
71173;DHT22;58875;51.996;4.504;2024-01-15T13:58:33;3.97;79.05
71173;DHT22;58875;51.996;4.504;2024-01-15T14:01:00;4.06;79.09
71173;DHT22;58875;51.996;4.504;2024-01-15T14:03:25;4.02;78.56
71173;DHT22;58875;51.996;4.504;2024-01-15T14:05:54;4.09;78.60
71173;DHT22;58875;51.996;4.504;2024-01-15T14:08:19;4.16;78.28
71173;DHT22;58875;51.996;4.504;2024-01-15T14:10:45;4.09;77.72
71173;DHT22;58875;51.996;4.504;2024-01-15T14:13:10;4.13;78.05
71173;DHT22;58875;51.996;4.504;2024-01-15T14:15:36;4.10;77.20
71173;DHT22;58875;51.996;4.504;2024-01-15T14:18:02;4.13;77.29
71173;DHT22;58875;51.996;4.504;2024-01-15T14:20:28;4.17;74.90
71173;DHT22;58875;51.996;4.504;2024-01-15T14:22:54;4.24;72.90
71173;DHT22;58875;51.996;4.504;2024-01-15T14:25:23;4.34;70.73
71173;DHT22;58875;51.996;4.504;2024-01-15T14:27:50;4.47;69.66
71173;DHT22;58875;51.996;4.504;2024-01-15T14:30:16;4.53;69.28
71173;DHT22;58875;51.996;4.504;2024-01-15T14:32:42;4.48;69.17
71173;DHT22;58875;51.996;4.504;2024-01-15T14:35:08;4.48;68.65
71173;DHT22;58875;51.996;4.504;2024-01-15T14:37:39;4.44;68.91
71173;DHT22;58875;51.996;4.504;2024-01-15T14:40:08;4.34;68.99
71173;DHT22;58875;51.996;4.504;2024-01-15T14:42:36;4.27;69.13
71173;DHT22;58875;51.996;4.504;2024-01-15T14:45:02;4.23;69.28
71173;DHT22;58875;51.996;4.504;2024-01-15T14:47:28;4.11;69.70
71173;DHT22;58875;51.996;4.504;2024-01-15T14:49:54;4.02;70.04
71173;DHT22;58875;51.996;4.504;2024-01-15T14:52:22;4.00;70.42
71173;DHT22;58875;51.996;4.504;2024-01-15T14:54:47;3.97;70.80
71173;DHT22;58875;51.996;4.504;2024-01-15T14:57:13;4.02;70.70
71173;DHT22;58875;51.996;4.504;2024-01-15T14:59:39;3.99;70.71
71173;DHT22;58875;51.996;4.504;2024-01-15T15:02:06;4.06;70.87
71173;DHT22;58875;51.996;4.504;2024-01-15T15:04:32;4.11;70.64
71173;DHT22;58875;51.996;4.504;2024-01-15T15:06:57;4.11;71.15
71173;DHT22;58875;51.996;4.504;2024-01-15T15:09:23;4.13;71.48
71173;DHT22;58875;51.996;4.504;2024-01-15T15:11:49;3.69;74.86
71173;DHT22;58875;51.996;4.504;2024-01-15T15:14:14;3.18;76.01
71173;DHT22;58875;51.996;4.504;2024-01-15T15:16:40;2.86;76.90
71173;DHT22;58875;51.996;4.504;2024-01-15T15:19:05;2.79;76.97
71173;DHT22;58875;51.996;4.504;2024-01-15T15:21:31;2.77;76.87
71173;DHT22;58875;51.996;4.504;2024-01-15T15:23:56;2.80;76.63
71173;DHT22;58875;51.996;4.504;2024-01-15T15:26:22;2.87;75.60
71173;DHT22;58875;51.996;4.504;2024-01-15T15:28:48;2.89;75.30
71173;DHT22;58875;51.996;4.504;2024-01-15T15:31:14;2.94;74.59
71173;DHT22;58875;51.996;4.504;2024-01-15T15:33:39;3.07;74.44
71173;DHT22;58875;51.996;4.504;2024-01-15T15:36:05;3.24;74.31
71173;DHT22;58875;51.996;4.504;2024-01-15T15:38:31;3.32;74.28
71173;DHT22;58875;51.996;4.504;2024-01-15T15:40:57;3.34;75.53
71173;DHT22;58875;51.996;4.504;2024-01-15T15:43:25;3.13;77.66
71173;DHT22;58875;51.996;4.504;2024-01-15T15:45:51;3.00;78.19
71173;DHT22;58875;51.996;4.504;2024-01-15T15:48:16;3.00;78.53
71173;DHT22;58875;51.996;4.504;2024-01-15T15:50:42;3.04;78.69